EST,Max TemperatureF,Mean TemperatureF,Min TemperatureF,Max Dew PointF,MeanDew PointF,Min DewpointF,Max Humidity, Mean Humidity, Min Humidity, Max Sea Level PressureIn, Mean Sea Level PressureIn, Min Sea Level PressureIn, Max VisibilityMiles, Mean VisibilityMiles, Min VisibilityMiles, Max Wind SpeedMPH, Mean Wind SpeedMPH, Max Gust SpeedMPH,PrecipitationIn, CloudCover, Events, WindDirDegrees
2012-2-1,55,50,46,48,37,18,94,61,26,30.17,30.13,30.06,10,10,7,12,3,17,0.00,8,Rain,228
2012-2-2,51,44,37,48,38,28,94,71,41,30.32,30.13,29.98,10,8,0,17,4,25,0.08,4,Fog-Rain-Thunderstorm,308
2012-2-3,53,38,24,32,28,23,93,69,30,30.46,30.38,30.33,10,9,5,5,0,,0.00,0,,348
2012-2-4,46,39,32,43,34,28,100,82,53,30.29,30.15,30.03,10,7,1,6,1,,0.12,5,Rain,28
2012-2-5,46,40,35,45,37,27,100,82,53,30.19,30.03,29.95,10,6,0,15,2,20,0.01,6,Fog-Rain,322
2012-2-6,42,32,21,36,28,19,100,82,70,30.21,30.16,30.08,10,8,0,12,2,18,0.00,4,Fog,273
2012-2-7,51,40,28,32,29,23,93,68,33,30.19,30.14,30.10,10,10,7,9,4,,0.08,0,,249
2012-2-8,35,32,30,34,29,23,100,88,75,30.16,30.13,30.09,10,7,0,14,2,18,0.08,7,Snow,294
2012-2-9,35,32,28,27,23,19,86,71,56,30.26,30.19,30.15,10,10,7,16,6,23,0.00,5,,307
2012-2-10,35,28,21,32,26,19,93,86,70,30.17,30.05,29.91,10,9,1,5,0,,0.00,5,Snow,257
2012-2-11,33,24,15,32,20,3,100,79,53,30.04,29.86,29.75,10,6,1,20,5,32,0.00,8,Snow,293
2012-2-12,30,22,14,14,9,5,79,62,44,30.15,30.10,30.05,10,8,2,17,11,31,0.00,5,Snow,298
2012-2-13,41,32,23,21,17,14,80,60,33,30.21,30.14,30.04,10,10,10,8,5,,0.00,2,,255
2012-2-14,42,37,32,37,28,21,87,70,57,30.01,29.96,29.91,10,10,10,10,3,,0.00,8,Rain,240
2012-2-15,53,43,33,34,30,25,87,67,35,30.25,30.19,30.05,10,10,10,10,5,,0.00,4,,291
2012-2-16,50,46,41,46,40,28,100,82,50,30.20,30.09,30.01,10,7,2,14,3,22,0.38,8,Rain,307
2012-2-17,48,40,32,41,30,21,81,64,37,30.14,30.10,30.04,10,10,10,13,5,20,0.00,4,,288
2012-2-18,55,40,26,30,25,18,93,61,23,30.11,30.04,29.97,10,10,5,16,2,24,0.00,0,,293
2012-2-19,41,36,32,32,30,28,100,82,65,30.00,29.90,29.77,10,6,0,9,4,,0.43,7,Snow,61
2012-2-20,39,29,19,28,26,18,100,79,60,30.24,30.14,29.96,10,9,0,8,2,,0.00,1,Fog,239
2012-2-21,50,36,21,32,27,19,100,75,50,30.26,30.04,29.89,10,9,2,14,4,20,0.00,2,,360
2012-2-22,53,43,33,39,34,28,93,67,41,29.88,29.77,29.58,10,10,10,18,5,26,0.00,3,,222
2012-2-23,60,48,37,45,41,36,100,77,48,29.66,29.60,29.56,10,10,2,10,4,18,0.08,4,Rain,234
2012-2-24,68,52,35,55,40,21,100,75,49,29.81,29.57,29.48,10,9,2,25,6,40,0.25,6,Rain-Thunderstorm,277
2012-2-25,33,30,28,25,15,10,75,52,38,30.29,30.02,29.80,10,10,1,22,12,36,0.00,6,Snow,291
2012-2-26,51,35,19,21,14,1,86,50,16,30.40,30.34,30.29,10,10,10,10,1,,0.00,0,,212
2012-2-27,60,42,24,30,25,19,86,55,27,30.38,30.33,30.25,10,10,10,13,3,23,0.00,1,,242
2012-2-28,64,46,28,27,18,1,75,39,9,30.42,30.36,30.25,10,10,10,9,4,,0.00,0,,245
2012-2-29,62,50,39,55,42,25,100,81,53,30.22,30.00,29.82,10,8,2,26,3,36,1.15,7,Rain-Thunderstorm,28